Time;durP1;ratioP1;P1;durP2;ratioP2;P2;SDS_P1;SDS_P2;PMS_P1;PMS_P2;Temp;Humidity;BMP_temperature;BMP_pressure;BME280_temperature;BME280_humidity;BME280_pressure;Samples;Min_cycle;Max_cycle;Signal;HPM_P1;HPM_P2
2023/05/06 00:01:55;;;;;;;12.55;10.65;;;;;;;;;;5067026;27;99047;-82
2023/05/06 00:04:21;;;;;;;13.52;11.02;;;;;;;;;;5066679;27;98701;-80
2023/05/06 00:06:47;;;;;;;13.05;10.88;;;;;;;;;;5071339;27;99717;-79
2023/05/06 00:09:14;;;;;;;14.63;10.85;;;;;;;;;;5066399;27;98311;-79
2023/05/06 00:11:40;;;;;;;13.90;11.05;;;;;;;;;;5068439;27;99552;-80
2023/05/06 00:14:07;;;;;;;11.10;9.90;;;;;;;;;;5067506;27;100350;-80
2023/05/06 00:16:33;;;;;;;12.02;10.07;;;;;;;;;;5067455;27;98805;-79
2023/05/06 00:19:00;;;;;;;12.00;10.63;;;;;;;;;;5067921;27;99816;-80
2023/05/06 00:21:26;;;;;;;11.30;10.20;;;;;;;;;;5065201;27;98899;-80
2023/05/06 00:23:53;;;;;;;13.38;11.55;;;;;;;;;;5067184;27;98341;-79
2023/05/06 00:26:19;;;;;;;14.00;11.40;;;;;;;;;;5068508;27;99410;-80
2023/05/06 00:28:45;;;;;;;17.38;10.23;;;;;;;;;;5069665;27;100101;-80
2023/05/06 00:31:12;;;;;;;11.63;10.43;;;;;;;;;;5066901;27;98289;-80
2023/05/06 00:33:38;;;;;;;12.80;11.23;;;;;;;;;;5066058;27;99593;-79
2023/05/06 00:36:05;;;;;;;14.65;11.90;;;;;;;;;;5065613;27;98385;-80
2023/05/06 00:38:31;;;;;;;16.48;11.43;;;;;;;;;;5068134;27;98214;-81
2023/05/06 00:40:57;;;;;;;15.73;11.20;;;;;;;;;;5067753;27;99262;-80
2023/05/06 00:43:24;;;;;;;16.35;11.75;;;;;;;;;;5067306;27;98171;-79
2023/05/06 00:45:50;;;;;;;15.38;11.07;;;;;;;;;;5066127;27;98734;-81
2023/05/06 00:48:17;;;;;;;14.20;11.75;;;;;;;;;;5069639;27;99039;-80
2023/05/06 00:50:44;;;;;;;15.48;12.43;;;;;;;;;;5067937;27;98967;-79
2023/05/06 00:53:10;;;;;;;16.10;12.27;;;;;;;;;;5066812;27;98919;-81
2023/05/06 00:55:38;;;;;;;18.08;12.23;;;;;;;;;;5067846;27;98592;-80
2023/05/06 00:58:04;;;;;;;14.70;12.32;;;;;;;;;;5065828;27;99452;-79
2023/05/06 01:00:31;;;;;;;14.25;12.73;;;;;;;;;;5067186;27;98135;-80
2023/05/06 01:02:57;;;;;;;13.40;12.00;;;;;;;;;;5067642;27;98222;-80
2023/05/06 01:05:28;;;;;;;18.27;13.25;;;;;;;;;;5065269;27;98886;-80
2023/05/06 01:07:55;;;;;;;16.05;13.38;;;;;;;;;;5073062;27;98739;-80
2023/05/06 01:10:40;;;;;;;13.82;12.38;;;;;;;;;;5074044;27;98271;-80
2023/05/06 01:13:11;;;;;;;13.73;12.23;;;;;;;;;;5069786;27;100210;-81
2023/05/06 01:15:48;;;;;;;14.27;12.85;;;;;;;;;;5071158;27;98132;-80
2023/05/06 01:18:19;;;;;;;16.05;13.10;;;;;;;;;;5069913;27;99688;-79
2023/05/06 01:20:48;;;;;;;18.55;14.90;;;;;;;;;;5070076;27;98238;-81
2023/05/06 01:23:15;;;;;;;16.42;13.73;;;;;;;;;;5068811;27;98282;-80
2023/05/06 01:25:43;;;;;;;19.50;14.52;;;;;;;;;;5068928;27;99325;-81
2023/05/06 01:28:10;;;;;;;17.83;15.07;;;;;;;;;;5070777;27;98828;-81
2023/05/06 01:31:03;;;;;;;16.15;14.27;;;;;;;;;;5070635;27;98275;-81
2023/05/06 01:33:36;;;;;;;20.55;15.57;;;;;;;;;;5070660;27;98342;-80
2023/05/06 01:36:13;;;;;;;20.20;16.95;;;;;;;;;;5070466;27;98209;-80
2023/05/06 01:38:56;;;;;;;22.88;15.80;;;;;;;;;;5062451;27;98651;-79
2023/05/06 01:41:23;;;;;;;20.02;16.00;;;;;;;;;;5069795;27;98928;-81
2023/05/06 01:43:51;;;;;;;20.85;16.38;;;;;;;;;;5071163;27;99548;-80
2023/05/06 01:46:18;;;;;;;21.42;16.65;;;;;;;;;;5069270;27;99082;-80
2023/05/06 01:48:47;;;;;;;18.73;15.77;;;;;;;;;;5069807;27;98085;-81
2023/05/06 01:51:14;;;;;;;18.23;14.40;;;;;;;;;;5069071;27;98326;-81
2023/05/06 01:53:41;;;;;;;16.23;14.57;;;;;;;;;;5069662;27;98514;-81
2023/05/06 01:56:07;;;;;;;18.80;15.32;;;;;;;;;;5072602;27;99598;-80
2023/05/06 01:58:34;;;;;;;17.65;14.25;;;;;;;;;;5068433;27;99763;-80
2023/05/06 02:01:00;;;;;;;18.45;15.07;;;;;;;;;;5069192;27;98648;-80
2023/05/06 02:03:26;;;;;;;16.05;14.00;;;;;;;;;;5061539;27;99323;-81
2023/05/06 02:05:53;;;;;;;18.00;15.15;;;;;;;;;;5069779;27;98493;-81
2023/05/06 02:08:20;;;;;;;16.48;14.52;;;;;;;;;;5067562;27;101385;-81
2023/05/06 02:10:46;;;;;;;16.92;14.90;;;;;;;;;;5068635;27;98427;-80
2023/05/06 02:13:13;;;;;;;22.88;17.10;;;;;;;;;;5069480;27;98608;-80
2023/05/06 02:15:39;;;;;;;18.95;16.98;;;;;;;;;;5067078;27;101607;-80
2023/05/06 02:18:10;;;;;;;20.67;16.65;;;;;;;;;;5071048;27;98890;-80
2023/05/06 02:20:37;;;;;;;20.55;18.13;;;;;;;;;;5069732;27;98718;-81
2023/05/06 02:23:04;;;;;;;23.35;19.27;;;;;;;;;;5068432;27;98220;-81
2023/05/06 02:25:30;;;;;;;24.58;19.40;;;;;;;;;;5061106;27;99739;-80
2023/05/06 02:28:00;;;;;;;29.27;20.50;;;;;;;;;;5069736;27;98800;-81
2023/05/06 02:30:29;;;;;;;23.73;18.90;;;;;;;;;;5068098;27;98339;-80
2023/05/06 02:32:56;;;;;;;21.92;19.33;;;;;;;;;;5069521;27;99495;-79
2023/05/06 02:35:23;;;;;;;29.70;18.98;;;;;;;;;;5067434;27;100510;-80
2023/05/06 02:37:49;;;;;;;24.85;19.67;;;;;;;;;;5068103;27;98752;-80
2023/05/06 02:40:15;;;;;;;20.45;18.27;;;;;;;;;;5072696;27;98551;-81
2023/05/06 02:42:42;;;;;;;24.67;19.80;;;;;;;;;;5067934;27;98280;-80
2023/05/06 02:45:08;;;;;;;23.13;19.08;;;;;;;;;;5069497;27;98151;-80
2023/05/06 02:47:35;;;;;;;25.45;20.65;;;;;;;;;;5068472;27;99348;-79
2023/05/06 02:50:02;;;;;;;29.45;21.95;;;;;;;;;;5068662;27;98231;-81
2023/05/06 02:52:31;;;;;;;29.17;22.42;;;;;;;;;;5069256;27;99350;-81
2023/05/06 02:54:57;;;;;;;28.13;22.25;;;;;;;;;;5068924;27;98928;-81
2023/05/06 02:57:24;;;;;;;29.73;21.10;;;;;;;;;;5068179;27;98284;-80
2023/05/06 02:59:50;;;;;;;37.20;23.98;;;;;;;;;;5071159;27;101108;-81
2023/05/06 03:02:16;;;;;;;30.42;22.55;;;;;;;;;;5067357;27;98539;-80
2023/05/06 03:04:43;;;;;;;29.50;23.58;;;;;;;;;;5068091;27;98568;-81
2023/05/06 03:07:10;;;;;;;27.80;22.17;;;;;;;;;;5067619;27;101833;-80
2023/05/06 03:09:36;;;;;;;28.25;21.10;;;;;;;;;;5067491;27;98336;-80
2023/05/06 03:12:03;;;;;;;22.70;17.85;;;;;;;;;;5066664;27;100292;-81
2023/05/06 03:14:30;;;;;;;21.95;19.58;;;;;;;;;;5068416;27;98846;-82
2023/05/06 03:16:56;;;;;;;26.27;20.13;;;;;;;;;;5068122;27;98347;-80
2023/05/06 03:19:23;;;;;;;29.38;21.48;;;;;;;;;;5068053;27;98726;-82
2023/05/06 03:21:50;;;;;;;27.90;22.48;;;;;;;;;;5069865;27;100952;-81
2023/05/06 03:24:18;;;;;;;29.35;21.58;;;;;;;;;;5066015;27;100592;-81
2023/05/06 03:26:45;;;;;;;27.40;21.67;;;;;;;;;;5066416;27;100102;-80
2023/05/06 03:29:12;;;;;;;28.17;21.98;;;;;;;;;;5067537;27;98176;-81
2023/05/06 03:31:40;;;;;;;29.92;21.52;;;;;;;;;;5067553;27;100495;-80
2023/05/06 03:34:08;;;;;;;23.38;19.90;;;;;;;;;;5066191;27;101107;-81
2023/05/06 03:36:34;;;;;;;30.45;24.27;;;;;;;;;;5067188;27;98194;-81
2023/05/06 03:39:01;;;;;;;22.83;20.40;;;;;;;;;;5066228;27;100289;-81
2023/05/06 03:41:30;;;;;;;29.52;22.17;;;;;;;;;;5066968;27;100195;-82
2023/05/06 03:43:57;;;;;;;23.95;21.02;;;;;;;;;;5070876;27;99236;-81
2023/05/06 03:46:25;;;;;;;32.92;25.48;;;;;;;;;;5066132;27;100011;-81
2023/05/06 03:48:52;;;;;;;33.10;25.63;;;;;;;;;;5066852;27;98273;-81
2023/05/06 03:51:19;;;;;;;37.03;26.23;;;;;;;;;;5066139;27;98705;-80
2023/05/06 03:53:47;;;;;;;45.40;26.67;;;;;;;;;;5066341;27;99940;-79
2023/05/06 03:56:13;;;;;;;36.20;26.45;;;;;;;;;;5059093;27;98352;-81
2023/05/06 03:58:40;;;;;;;32.17;24.23;;;;;;;;;;5067141;27;100944;-81
2023/05/06 04:01:09;;;;;;;38.13;26.27;;;;;;;;;;5067279;27;100032;-81
2023/05/06 04:03:36;;;;;;;36.53;25.63;;;;;;;;;;5068109;27;98236;-80
2023/05/06 04:06:03;;;;;;;40.97;26.67;;;;;;;;;;5069276;27;100748;-81
2023/05/06 04:08:30;;;;;;;28.30;24.75;;;;;;;;;;5066369;27;98658;-81
2023/05/06 04:10:57;;;;;;;33.35;25.70;;;;;;;;;;5067323;27;98307;-82
2023/05/06 04:13:26;;;;;;;36.38;26.17;;;;;;;;;;5066865;27;99797;-80
2023/05/06 04:15:56;;;;;;;35.30;25.48;;;;;;;;;;5065886;27;98366;-80
2023/05/06 04:18:27;;;;;;;34.05;25.35;;;;;;;;;;5067680;27;100656;-81
2023/05/06 04:20:59;;;;;;;32.35;25.85;;;;;;;;;;5068678;27;99161;-81
2023/05/06 04:23:28;;;;;;;35.85;27.17;;;;;;;;;;5068324;27;98444;-82
2023/05/06 04:25:56;;;;;;;25.17;22.52;;;;;;;;;;5068562;27;99353;-81
2023/05/06 04:28:23;;;;;;;31.27;25.25;;;;;;;;;;5068902;27;102373;-81
2023/05/06 04:30:51;;;;;;;26.40;23.10;;;;;;;;;;5067124;27;98941;-82
2023/05/06 04:33:21;;;;;;;29.55;21.90;;;;;;;;;;5066945;27;101423;-81
2023/05/06 04:35:53;;;;;;;35.00;22.50;;;;;;;;;;5066457;27;98308;-81
2023/05/06 04:38:24;;;;;;;25.88;21.67;;;;;;;;;;5066872;27;100827;-81
2023/05/06 04:40:51;;;;;;;21.70;19.45;;;;;;;;;;5066558;27;100857;-80
2023/05/06 04:43:18;;;;;;;23.05;19.90;;;;;;;;;;5069260;27;98320;-81
2023/05/06 04:45:50;;;;;;;25.98;20.17;;;;;;;;;;5070146;27;100375;-81
2023/05/06 04:48:21;;;;;;;23.70;20.00;;;;;;;;;;5070174;27;102064;-81
2023/05/06 04:50:49;;;;;;;21.75;19.27;;;;;;;;;;5072967;27;98188;-81
2023/05/06 04:53:16;;;;;;;26.70;20.10;;;;;;;;;;5069610;27;101421;-81
2023/05/06 04:55:42;;;;;;;23.88;21.05;;;;;;;;;;5070766;27;98129;-81
2023/05/06 04:58:09;;;;;;;26.58;20.45;;;;;;;;;;5071623;27;98661;-81
2023/05/06 05:00:37;;;;;;;21.73;19.42;;;;;;;;;;5070080;27;98917;-80
2023/05/06 05:03:03;;;;;;;20.73;18.20;;;;;;;;;;5070355;27;98256;-81
2023/05/06 05:05:31;;;;;;;66.95;20.10;;;;;;;;;;5069149;27;98902;-80
2023/05/06 05:07:58;;;;;;;25.80;20.52;;;;;;;;;;5069813;27;99058;-81
2023/05/06 05:10:27;;;;;;;29.42;21.45;;;;;;;;;;5072610;27;98011;-81
2023/05/06 05:12:55;;;;;;;24.60;20.65;;;;;;;;;;5071174;27;98620;-82
2023/05/06 05:15:22;;;;;;;41.67;21.52;;;;;;;;;;5071734;27;98369;-83
2023/05/06 05:17:49;;;;;;;70.72;21.05;;;;;;;;;;5069567;27;99369;-81
2023/05/06 05:20:17;;;;;;;45.45;20.77;;;;;;;;;;5069439;27;102051;-81
2023/05/06 05:22:46;;;;;;;52.33;22.60;;;;;;;;;;5070248;27;98249;-81
2023/05/06 05:25:13;;;;;;;29.38;19.63;;;;;;;;;;5053421;27;99655;-82
2023/05/06 05:27:41;;;;;;;20.05;17.95;;;;;;;;;;5049188;27;101368;-81
2023/05/06 05:30:08;;;;;;;27.58;19.17;;;;;;;;;;5061259;27;98502;-81
2023/05/06 05:32:37;;;;;;;24.67;19.42;;;;;;;;;;5068368;27;100803;-82
2023/05/06 05:35:03;;;;;;;20.45;18.27;;;;;;;;;;5051083;27;98207;-81
2023/05/06 05:37:30;;;;;;;20.88;18.90;;;;;;;;;;5065976;27;99777;-80
2023/05/06 05:39:57;;;;;;;19.88;17.05;;;;;;;;;;5069571;27;99226;-81
2023/05/06 05:42:23;;;;;;;18.70;16.77;;;;;;;;;;5069809;27;98340;-81
2023/05/06 05:44:50;;;;;;;19.77;17.88;;;;;;;;;;5071035;27;100937;-81
2023/05/06 05:47:18;;;;;;;20.13;17.80;;;;;;;;;;5069877;27;101199;-81
2023/05/06 05:49:45;;;;;;;19.73;17.67;;;;;;;;;;5070671;27;98373;-81
2023/05/06 05:52:12;;;;;;;19.50;17.48;;;;;;;;;;5071071;27;98793;-82
2023/05/06 05:54:38;;;;;;;18.42;16.83;;;;;;;;;;5075063;27;99965;-81
2023/05/06 05:57:05;;;;;;;18.80;17.10;;;;;;;;;;5076811;27;101162;-81
2023/05/06 05:59:32;;;;;;;18.45;16.77;;;;;;;;;;5079561;27;101587;-82
2023/05/06 06:02:02;;;;;;;20.13;18.00;;;;;;;;;;5068058;27;98374;-81
2023/05/06 06:04:28;;;;;;;17.13;15.50;;;;;;;;;;5074983;27;99461;-80
2023/05/06 06:07:00;;;;;;;20.02;18.13;;;;;;;;;;5068781;27;100219;-81
2023/05/06 06:09:29;;;;;;;20.65;18.42;;;;;;;;;;5088892;27;98252;-81
2023/05/06 06:11:59;;;;;;;20.70;18.50;;;;;;;;;;5084780;27;99363;-81
2023/05/06 06:14:27;;;;;;;21.17;18.85;;;;;;;;;;5066938;27;100317;-79
2023/05/06 06:16:54;;;;;;;20.23;18.23;;;;;;;;;;5064536;27;98208;-77
2023/05/06 06:19:21;;;;;;;18.80;17.10;;;;;;;;;;5064860;27;101665;-80
2023/05/06 06:21:49;;;;;;;19.13;17.20;;;;;;;;;;5066276;27;98428;-78
2023/05/06 06:24:17;;;;;;;32.63;19.55;;;;;;;;;;5066020;27;101084;-76
2023/05/06 06:26:43;;;;;;;20.83;18.42;;;;;;;;;;5069587;27;98886;-78
2023/05/06 06:29:10;;;;;;;22.10;19.45;;;;;;;;;;5065964;27;98623;-76
2023/05/06 06:31:36;;;;;;;20.65;18.52;;;;;;;;;;5064287;27;99347;-79
2023/05/06 06:34:07;;;;;;;15.52;13.27;;;;;;;;;;5058399;27;102049;-82
2023/05/06 06:36:34;;;;;;;19.80;18.00;;;;;;;;;;5066417;27;98474;-79
2023/05/06 06:39:02;;;;;;;20.63;18.55;;;;;;;;;;5071175;27;101215;-78
2023/05/06 06:41:28;;;;;;;20.08;18.05;;;;;;;;;;5067411;27;98276;-79
2023/05/06 06:43:55;;;;;;;21.10;18.70;;;;;;;;;;5068009;27;99759;-79
2023/05/06 06:46:24;;;;;;;21.42;19.15;;;;;;;;;;5066913;27;99825;-78
2023/05/06 06:48:50;;;;;;;20.48;18.45;;;;;;;;;;5066432;27;98540;-79
2023/05/06 06:51:16;;;;;;;20.10;18.02;;;;;;;;;;5064070;27;99184;-79
2023/05/06 06:53:43;;;;;;;21.80;18.73;;;;;;;;;;5066936;27;99550;-77
2023/05/06 06:56:10;;;;;;;18.95;17.25;;;;;;;;;;5067743;27;98263;-79
2023/05/06 06:58:37;;;;;;;20.70;18.50;;;;;;;;;;5069557;27;98517;-79
2023/05/06 07:01:04;;;;;;;22.73;18.42;;;;;;;;;;5060217;27;98144;-79
2023/05/06 07:03:31;;;;;;;18.00;16.23;;;;;;;;;;5064311;27;99014;-78
2023/05/06 07:05:57;;;;;;;19.38;17.05;;;;;;;;;;5072023;27;100397;-78
2023/05/06 07:08:24;;;;;;;19.02;17.33;;;;;;;;;;5069214;27;98292;-78
2023/05/06 07:10:50;;;;;;;18.45;16.50;;;;;;;;;;5057138;27;98810;-78
2023/05/06 07:13:19;;;;;;;18.05;16.30;;;;;;;;;;5053455;27;100169;-78
2023/05/06 07:15:48;;;;;;;19.27;17.25;;;;;;;;;;5068952;27;98228;-78
2023/05/06 07:18:15;;;;;;;17.48;15.80;;;;;;;;;;5068394;27;98829;-79
2023/05/06 07:20:41;;;;;;;17.55;15.52;;;;;;;;;;5070041;27;99855;-78
2023/05/06 07:23:08;;;;;;;16.80;15.30;;;;;;;;;;5062055;27;99728;-79
2023/05/06 07:25:35;;;;;;;16.55;14.95;;;;;;;;;;5064704;27;100272;-79
2023/05/06 07:28:01;;;;;;;30.23;16.20;;;;;;;;;;5068116;27;98121;-79
2023/05/06 07:30:27;;;;;;;17.65;15.95;;;;;;;;;;5068955;27;99397;-79
2023/05/06 07:32:54;;;;;;;17.33;15.57;;;;;;;;;;5067464;27;100034;-78
2023/05/06 07:35:20;;;;;;;17.50;15.13;;;;;;;;;;5068294;27;98242;-78
2023/05/06 07:37:47;;;;;;;17.08;14.95;;;;;;;;;;5064422;27;99413;-78
2023/05/06 07:40:13;;;;;;;11.25;9.98;;;;;;;;;;5059883;27;100141;-82
2023/05/06 07:42:40;;;;;;;19.42;15.43;;;;;;;;;;5070916;27;99188;-78
2023/05/06 07:45:08;;;;;;;16.45;14.95;;;;;;;;;;5051181;27;101478;-79
2023/05/06 07:47:35;;;;;;;24.17;16.52;;;;;;;;;;5048650;27;98261;-80
2023/05/06 07:50:03;;;;;;;16.05;14.45;;;;;;;;;;5049673;27;99311;-81
2023/05/06 07:52:30;;;;;;;16.67;14.88;;;;;;;;;;5054120;27;99956;-80
2023/05/06 07:54:56;;;;;;;17.77;14.95;;;;;;;;;;5067333;27;98220;-80
2023/05/06 07:57:26;;;;;;;16.52;14.95;;;;;;;;;;5066451;27;99551;-80
2023/05/06 07:59:53;;;;;;;18.52;16.40;;;;;;;;;;5069805;27;100573;-81
2023/05/06 08:02:19;;;;;;;19.48;16.13;;;;;;;;;;5071706;27;98048;-80
2023/05/06 08:04:46;;;;;;;19.00;14.88;;;;;;;;;;5071996;27;99833;-81
2023/05/06 08:07:16;;;;;;;18.60;16.48;;;;;;;;;;5068118;27;98196;-81
2023/05/06 08:09:43;;;;;;;17.88;16.10;;;;;;;;;;5066302;27;99097;-81
2023/05/06 08:12:09;;;;;;;19.35;17.55;;;;;;;;;;5063389;27;99729;-81
2023/05/06 08:14:35;;;;;;;21.40;17.52;;;;;;;;;;5060655;27;98236;-81
2023/05/06 08:17:02;;;;;;;19.20;17.23;;;;;;;;;;5069832;27;99857;-79
2023/05/06 08:19:30;;;;;;;20.75;18.55;;;;;;;;;;5072107;27;100137;-79
2023/05/06 08:21:59;;;;;;;20.65;18.25;;;;;;;;;;5067963;27;98212;-79
2023/05/06 08:24:27;;;;;;;28.55;18.50;;;;;;;;;;5071252;27;99012;-79
2023/05/06 08:26:58;;;;;;;20.80;18.63;;;;;;;;;;5075494;27;99079;-79
2023/05/06 08:29:24;;;;;;;24.20;17.52;;;;;;;;;;5069834;27;100400;-80
2023/05/06 08:31:56;;;;;;;21.67;18.50;;;;;;;;;;5071364;27;99321;-80
2023/05/06 08:34:25;;;;;;;25.45;20.02;;;;;;;;;;5070613;27;98319;-80
2023/05/06 08:36:52;;;;;;;20.67;18.33;;;;;;;;;;5072633;27;99499;-80
2023/05/06 08:39:18;;;;;;;23.20;20.77;;;;;;;;;;5070941;27;100244;-80
2023/05/06 08:41:49;;;;;;;23.90;19.50;;;;;;;;;;5069842;27;98076;-79
2023/05/06 08:44:17;;;;;;;21.35;17.98;;;;;;;;;;5070425;27;99439;-80
2023/05/06 08:46:44;;;;;;;23.67;19.10;;;;;;;;;;5071413;27;100121;-79
2023/05/06 08:49:11;;;;;;;21.08;18.80;;;;;;;;;;5075009;27;98274;-80
2023/05/06 08:51:40;;;;;;;20.95;18.33;;;;;;;;;;5071340;27;98865;-78
2023/05/06 08:54:07;;;;;;;21.45;19.17;;;;;;;;;;5076227;27;98376;-79
2023/05/06 08:56:34;;;;;;;21.95;19.35;;;;;;;;;;5077180;27;99621;-76
2023/05/06 08:59:01;;;;;;;22.70;19.08;;;;;;;;;;5068550;27;100341;-82
2023/05/06 09:01:29;;;;;;;21.23;18.08;;;;;;;;;;5071593;27;98465;-79
2023/05/06 09:03:57;;;;;;;22.23;18.83;;;;;;;;;;5070652;27;98908;-77
2023/05/06 09:06:24;;;;;;;21.80;18.35;;;;;;;;;;5071176;27;99052;-80
2023/05/06 09:08:50;;;;;;;21.10;17.70;;;;;;;;;;5075001;27;99023;-79
2023/05/06 09:11:23;;;;;;;19.95;15.95;;;;;;;;;;5053635;27;99014;-78
2023/05/06 09:13:50;;;;;;;21.77;17.13;;;;;;;;;;5063032;27;98759;-79
2023/05/06 09:16:28;;;;;;;17.67;15.57;;;;;;;;;;5063211;27;98912;-79
2023/05/06 09:18:55;;;;;;;18.30;15.02;;;;;;;;;;5050810;27;100276;-78
2023/05/06 09:21:28;;;;;;;16.73;14.27;;;;;;;;;;5050846;27;98246;-79
2023/05/06 09:23:54;;;;;;;16.50;13.50;;;;;;;;;;5050536;27;99430;-78
2023/05/06 09:26:21;;;;;;;17.50;12.48;;;;;;;;;;5050692;27;100729;-76
2023/05/06 09:28:49;;;;;;;18.98;11.15;;;;;;;;;;5061441;27;98267;-77
2023/05/06 09:31:16;;;;;;;20.35;12.05;;;;;;;;;;5066195;27;99594;-77
2023/05/06 09:33:43;;;;;;;16.45;13.60;;;;;;;;;;5069873;27;98277;-76
2023/05/06 09:36:12;;;;;;;17.13;12.00;;;;;;;;;;5069736;27;98838;-75
2023/05/06 09:38:39;;;;;;;14.07;11.63;;;;;;;;;;5068887;27;99485;-76
2023/05/06 09:41:07;;;;;;;14.98;13.45;;;;;;;;;;5071089;27;98305;-77
2023/05/06 09:43:35;;;;;;;16.27;12.40;;;;;;;;;;5068643;27;99027;-76
2023/05/06 09:46:01;;;;;;;16.67;11.43;;;;;;;;;;5067353;27;99143;-78
2023/05/06 09:48:29;;;;;;;14.38;11.32;;;;;;;;;;5068343;27;98347;-77
2023/05/06 09:50:55;;;;;;;19.35;11.88;;;;;;;;;;5067889;27;98982;-77
2023/05/06 09:53:26;;;;;;;17.60;13.15;;;;;;;;;;5067888;27;99272;-78
2023/05/06 09:55:52;;;;;;;13.10;9.40;;;;;;;;;;5072921;27;99474;-79
2023/05/06 09:58:19;;;;;;;16.17;12.63;;;;;;;;;;5067529;27;98919;-77
2023/05/06 10:00:46;;;;;;;15.18;13.13;;;;;;;;;;5081827;27;98208;-76
2023/05/06 10:03:17;;;;;;;15.45;12.50;;;;;;;;;;5088506;27;101705;-77
2023/05/06 10:05:44;;;;;;;21.73;13.88;;;;;;;;;;5084568;27;99105;-77
2023/05/06 10:08:17;;;;;;;13.68;12.50;;;;;;;;;;5086250;27;97930;-78
2023/05/06 10:10:46;;;;;;;14.65;13.23;;;;;;;;;;5081875;27;99799;-77
2023/05/06 10:13:13;;;;;;;13.98;12.25;;;;;;;;;;5068723;27;99017;-78
2023/05/06 10:15:41;;;;;;;16.05;12.60;;;;;;;;;;5069332;27;99908;-77
2023/05/06 10:18:09;;;;;;;17.75;11.88;;;;;;;;;;5068186;27;98900;-79
2023/05/06 10:20:37;;;;;;;13.07;11.02;;;;;;;;;;5069797;27;98113;-78
2023/05/06 10:23:04;;;;;;;16.25;13.20;;;;;;;;;;5070287;27;99715;-77
2023/05/06 10:25:44;;;;;;;17.10;12.30;;;;;;;;;;5069218;27;100450;-76
2023/05/06 10:28:11;;;;;;;14.85;13.40;;;;;;;;;;5068294;27;99979;-77
2023/05/06 10:30:51;;;;;;;14.25;12.55;;;;;;;;;;5067295;27;99699;-77
2023/05/06 10:33:21;;;;;;;14.82;13.30;;;;;;;;;;5049476;27;99827;-78
2023/05/06 10:35:57;;;;;;;14.90;12.70;;;;;;;;;;5064329;27;98199;-77
2023/05/06 10:38:28;;;;;;;16.23;13.48;;;;;;;;;;5068805;27;99349;-77
2023/05/06 10:40:55;;;;;;;14.70;12.85;;;;;;;;;;5052553;27;98279;-80
2023/05/06 10:43:23;;;;;;;15.90;12.52;;;;;;;;;;5066873;27;99959;-78
2023/05/06 10:46:07;;;;;;;13.93;11.15;;;;;;;;;;5071017;27;100060;-79
2023/05/06 10:48:35;;;;;;;13.80;11.25;;;;;;;;;;5054414;27;98341;-80
2023/05/06 10:51:20;;;;;;;12.95;11.70;;;;;;;;;;5059641;27;99727;-79
2023/05/06 10:54:08;;;;;;;16.63;10.82;;;;;;;;;;5049234;27;99617;-80
2023/05/06 10:56:35;;;;;;;12.90;11.52;;;;;;;;;;5064482;27;98496;-79
2023/05/06 10:59:04;;;;;;;12.55;10.98;;;;;;;;;;5069287;27;98695;-80
2023/05/06 11:01:31;;;;;;;13.70;12.18;;;;;;;;;;5072472;27;100024;-78
2023/05/06 11:04:01;;;;;;;14.00;11.07;;;;;;;;;;5068671;27;99539;-80
2023/05/06 11:06:31;;;;;;;14.95;10.25;;;;;;;;;;5054173;27;99670;-79
2023/05/06 11:08:59;;;;;;;12.45;10.10;;;;;;;;;;5048250;27;98124;-80
2023/05/06 11:11:50;;;;;;;11.10;9.05;;;;;;;;;;5052859;27;100168;-79
2023/05/06 11:14:30;;;;;;;11.63;9.35;;;;;;;;;;5063478;27;100133;-79
2023/05/06 11:16:57;;;;;;;12.75;10.07;;;;;;;;;;5066380;27;98309;-82
2023/05/06 11:19:28;;;;;;;10.40;9.25;;;;;;;;;;5067974;27;100001;-79
2023/05/06 11:21:56;;;;;;;12.27;8.20;;;;;;;;;;5072736;27;100097;-80
2023/05/06 11:24:29;;;;;;;12.73;7.45;;;;;;;;;;5065221;27;99777;-81
2023/05/06 11:26:57;;;;;;;10.07;7.32;;;;;;;;;;5068183;27;100427;-81
2023/05/06 11:29:24;;;;;;;10.40;7.70;;;;;;;;;;5059447;27;98348;-80
2023/05/06 11:31:53;;;;;;;7.72;7.00;;;;;;;;;;5046773;27;99477;-81
2023/05/06 11:34:24;;;;;;;9.90;8.68;;;;;;;;;;5048969;27;99877;-80
2023/05/06 11:36:57;;;;;;;9.77;8.20;;;;;;;;;;5049356;27;98310;-78
2023/05/06 11:39:29;;;;;;;11.52;8.10;;;;;;;;;;5051930;27;99822;-81
2023/05/06 11:42:03;;;;;;;14.90;9.27;;;;;;;;;;5071743;27;100319;-80
2023/05/06 11:44:31;;;;;;;12.05;7.55;;;;;;;;;;5076229;27;99466;-79
2023/05/06 11:47:03;;;;;;;22.50;8.68;;;;;;;;;;5065864;27;100426;-78
2023/05/06 11:49:33;;;;;;;9.48;8.02;;;;;;;;;;5055558;27;98207;-76
2023/05/06 11:52:02;;;;;;;11.93;7.80;;;;;;;;;;5058260;27;99364;-77
2023/05/06 11:54:32;;;;;;;8.55;7.28;;;;;;;;;;5060093;27;100712;-80
2023/05/06 11:57:00;;;;;;;8.48;7.28;;;;;;;;;;5053837;27;99861;-78
2023/05/06 11:59:31;;;;;;;9.35;7.38;;;;;;;;;;5066997;27;99942;-79
2023/05/06 12:01:58;;;;;;;11.45;8.38;;;;;;;;;;5065871;27;100194;-79
2023/05/06 12:04:25;;;;;;;8.85;7.90;;;;;;;;;;5065410;27;98453;-80
2023/05/06 12:06:54;;;;;;;11.82;8.77;;;;;;;;;;5061378;27;100076;-77
2023/05/06 12:09:23;;;;;;;9.85;8.35;;;;;;;;;;5063123;27;98112;-78
2023/05/06 12:11:50;;;;;;;9.20;8.27;;;;;;;;;;5065440;27;99554;-78
2023/05/06 12:14:17;;;;;;;10.27;8.10;;;;;;;;;;5058300;27;99997;-78
2023/05/06 12:16:44;;;;;;;10.30;7.70;;;;;;;;;;5048981;27;98618;-79
2023/05/06 12:19:14;;;;;;;11.88;8.43;;;;;;;;;;5049757;27;98867;-78
2023/05/06 12:21:41;;;;;;;8.77;6.75;;;;;;;;;;5048723;27;101252;-78
2023/05/06 12:24:07;;;;;;;8.65;7.70;;;;;;;;;;5049068;27;97996;-78
2023/05/06 12:26:42;;;;;;;9.60;8.65;;;;;;;;;;5047429;27;98576;-78
2023/05/06 12:29:09;;;;;;;14.18;8.15;;;;;;;;;;5058763;27;100076;-79
2023/05/06 12:31:36;;;;;;;10.18;9.18;;;;;;;;;;5068172;27;99535;-79
2023/05/06 12:34:05;;;;;;;9.68;8.50;;;;;;;;;;5068484;27;99876;-77
2023/05/06 12:36:37;;;;;;;10.02;8.40;;;;;;;;;;5068389;27;98803;-78
2023/05/06 12:39:04;;;;;;;11.25;8.80;;;;;;;;;;5069570;27;98766;-79
2023/05/06 12:41:41;;;;;;;12.73;8.45;;;;;;;;;;5068048;27;99940;-79
2023/05/06 12:44:26;;;;;;;8.63;7.68;;;;;;;;;;5066268;27;98391;-78
2023/05/06 12:46:52;;;;;;;10.68;7.70;;;;;;;;;;5067879;27;99893;-79
2023/05/06 12:49:19;;;;;;;8.80;7.03;;;;;;;;;;5069941;27;98993;-79
2023/05/06 12:51:45;;;;;;;6.78;6.07;;;;;;;;;;5053805;27;98822;-78
2023/05/06 12:54:29;;;;;;;10.65;7.22;;;;;;;;;;5047635;27;100299;-79
2023/05/06 12:56:56;;;;;;;7.60;6.80;;;;;;;;;;5047245;27;98092;-78
2023/05/06 12:59:25;;;;;;;9.90;5.32;;;;;;;;;;5052601;27;99474;-81
2023/05/06 13:01:53;;;;;;;10.60;7.68;;;;;;;;;;5064574;27;100279;-78
2023/05/06 13:04:20;;;;;;;8.43;7.57;;;;;;;;;;5069334;27;98210;-77
2023/05/06 13:06:46;;;;;;;8.45;7.53;;;;;;;;;;5071393;27;98296;-77
2023/05/06 13:09:20;;;;;;;10.63;7.75;;;;;;;;;;5064940;27;99308;-77
2023/05/06 13:11:47;;;;;;;9.93;6.75;;;;;;;;;;5057954;27;98305;-79
2023/05/06 13:14:13;;;;;;;10.27;7.47;;;;;;;;;;5074038;27;100257;-78
2023/05/06 13:16:40;;;;;;;9.52;6.75;;;;;;;;;;5068574;27;98224;-77
2023/05/06 13:19:08;;;;;;;8.40;7.53;;;;;;;;;;5069302;27;99368;-77
2023/05/06 13:21:50;;;;;;;11.25;7.45;;;;;;;;;;5069657;27;100487;-75
2023/05/06 13:24:16;;;;;;;9.90;7.30;;;;;;;;;;5068443;27;98336;-77
2023/05/06 13:26:43;;;;;;;10.15;7.90;;;;;;;;;;5071410;27;98677;-77
2023/05/06 13:29:09;;;;;;;9.68;7.78;;;;;;;;;;5070319;27;99978;-79
2023/05/06 13:31:36;;;;;;;14.43;8.23;;;;;;;;;;5070842;27;98429;-77
2023/05/06 13:34:02;;;;;;;9.88;8.23;;;;;;;;;;5073072;27;99468;-77
2023/05/06 13:36:30;;;;;;;10.23;8.10;;;;;;;;;;5052833;27;98020;-78
2023/05/06 13:38:56;;;;;;;11.48;7.93;;;;;;;;;;5055045;27;99787;-78
2023/05/06 13:41:24;;;;;;;14.60;8.85;;;;;;;;;;5070691;27;100000;-78
2023/05/06 13:43:51;;;;;;;8.07;7.43;;;;;;;;;;5070137;27;98156;-77
2023/05/06 13:46:17;;;;;;;10.00;7.50;;;;;;;;;;5066237;27;99981;-78
2023/05/06 13:48:44;;;;;;;11.35;7.50;;;;;;;;;;5069418;27;100345;-78
2023/05/06 13:51:10;;;;;;;8.38;7.30;;;;;;;;;;5068137;27;98131;-78
2023/05/06 13:53:38;;;;;;;8.00;7.25;;;;;;;;;;5069693;27;99635;-78
2023/05/06 13:56:04;;;;;;;9.07;7.03;;;;;;;;;;5073845;27;99945;-78
2023/05/06 13:58:31;;;;;;;10.30;6.65;;;;;;;;;;5070090;27;100011;-79
2023/05/06 14:00:58;;;;;;;9.23;7.15;;;;;;;;;;5070916;27;100535;-79
2023/05/06 14:03:24;;;;;;;8.45;7.40;;;;;;;;;;5070355;27;98212;-79
2023/05/06 14:05:51;;;;;;;11.07;8.20;;;;;;;;;;5067330;27;99559;-79
2023/05/06 14:08:17;;;;;;;9.00;7.28;;;;;;;;;;5069955;27;99961;-79
2023/05/06 14:10:44;;;;;;;11.20;7.18;;;;;;;;;;5070699;27;98931;-79
2023/05/06 14:13:10;;;;;;;7.95;6.38;;;;;;;;;;5069458;27;99983;-79
2023/05/06 14:15:37;;;;;;;10.20;6.68;;;;;;;;;;5070205;27;101835;-79
2023/05/06 14:18:03;;;;;;;7.60;6.72;;;;;;;;;;5074045;27;98292;-79
2023/05/06 14:20:30;;;;;;;7.13;6.43;;;;;;;;;;5068159;27;99010;-78
2023/05/06 14:22:56;;;;;;;9.63;7.10;;;;;;;;;;5069424;27;98922;-78
2023/05/06 14:25:26;;;;;;;10.55;6.60;;;;;;;;;;5069276;27;101543;-79